Latest Weather Observations for Wudinna Airport

IDS60801

Issued at 4:05 pm CST Thursday 17 April 2014 (issued every 30 minutes, with the page automatically refreshed every 10 minutes)

About weather observations | Map of weather stations | Latest weather observations for SA | Other Formats
Station Details ID: 018083 Name: WUDINNA AERO Lat: -33.04 Lon: 135.45 Height: 86.4 m
Data from the previous 72 hours. | See also: Recent months at Wudinna Airport
Date/Time
CST
Temp
°C
App
Temp
°C
Dew
Point
Rel
Hum
%
Delta-T
°C
Wind Press
QNH
hPa
Press
MSL
hPa
Rain
since 9 am
mm
Dir
 
Spd
km/h
Gust
km/h
Spd
kts
Gust
kts
17/04:00pm 27.3 21.9 8.2 30 10.3 SW 26 33 14 18 1019.2 - 0.0
17/03:30pm 27.7 22.4 7.0 27 11.0 WNW 24 33 13 18 1019.1 - 0.0
17/03:00pm 27.8 21.7 6.6 26 11.2 WSW 28 39 15 21 1019.1 1019.0 0.0
17/02:30pm 28.0 23.3 6.2 25 11.5 W 20 30 11 16 1019.3 - 0.0
17/02:00pm 27.3 21.6 5.0 24 11.5 W 24 39 13 21 1019.5 - 0.0
17/01:30pm 27.4 22.4 4.5 23 11.7 W 20 32 11 17 1019.9 - 0.0
17/01:00pm 26.6 22.0 5.5 26 10.9 W 19 35 10 19 1020.2 - 0.0
17/12:30pm 26.4 21.6 5.4 26 10.8 W 20 26 11 14 1020.7 - 0.0
17/12:00pm 25.7 21.2 6.3 29 10.1 WNW 19 26 10 14 1021.1 1020.9 0.0
17/11:30am 25.6 21.8 7.7 32 9.5 NW 17 26 9 14 1021.4 - 0.0
17/11:00am 24.2 21.2 9.4 39 8.1 NNW 15 28 8 15 1021.6 - 0.0
17/10:30am 23.0 19.8 8.3 39 7.8 NW 15 20 8 11 1021.8 - 0.0
17/10:00am 21.7 18.4 9.6 46 6.5 NW 17 22 9 12 1022.0 - 0.0
17/09:30am 20.0 18.4 11.5 58 4.7 NNW 11 17 6 9 1022.0 - 0.0
17/09:00am 15.9 15.8 13.4 85 1.4 WSW 6 11 3 6 1022.0 1021.8 0.0
17/08:30am 13.7 13.3 12.9 95 0.4 S 7 9 4 5 1021.7 - 0.0
17/08:00am 12.7 13.4 12.1 96 0.3 CALM 0 0 0 0 1021.5 - 0.0
17/07:30am 10.8 10.9 10.2 96 0.3 CALM 0 0 0 0 1021.2 - 0.0
17/07:00am 9.9 9.0 9.1 95 0.4 NE 4 6 2 3 1020.9 - 0.0
17/06:30am 11.0 9.8 10.2 95 0.4 NNE 7 9 4 5 1020.8 - 0.0
17/06:00am 12.2 11.3 11.4 95 0.4 NE 7 9 4 5 1020.9 1020.7 0.0
17/05:30am 12.7 12.0 11.9 95 0.4 NE 7 9 4 5 1020.7 - 0.0
17/05:00am 12.8 12.1 12.0 95 0.4 NE 7 11 4 6 1020.5 - 0.0
17/04:30am 13.6 12.8 12.8 95 0.4 E 9 13 5 7 1020.4 - 0.0
17/04:00am 13.1 13.8 12.3 95 0.4 CALM 0 4 0 2 1020.4 - 0.0
17/03:30am 12.3 11.4 11.5 95 0.4 E 7 9 4 5 1020.4 - 0.0
17/03:00am 10.4 8.2 9.5 94 0.5 NE 11 13 6 7 1020.5 1020.3 0.0
17/02:30am 9.2 7.4 8.1 93 0.5 NNE 7 9 4 5 1020.6 - 0.0
17/02:00am 9.3 7.6 8.2 93 0.5 NNE 7 9 4 5 1020.9 - 0.0
17/01:30am 9.5 8.0 8.4 93 0.5 NNE 6 7 3 4 1021.1 - 0.0
17/01:00am 9.5 9.1 8.3 92 0.6 CALM 0 7 0 4 1021.2 - 0.0
17/12:30am 10.0 9.0 8.8 92 0.6 NNE 4 6 2 3 1021.2 - 0.0
17/12:00am 9.8 8.7 8.4 91 0.7 NNE 4 7 2 4 1021.4 1021.2 0.0
 
Date/Time
CST
Temp
°C
App
Temp
°C
Dew
Point
Rel
Hum
%
Delta-T
°C
Wind Press
QNH
hPa
Press
MSL
hPa
Rain
since 9 am
mm
Dir
 
Spd
km/h
Gust
km/h
Spd
kts
Gust
kts
16/11:30pm 10.2 8.7 8.6 90 0.8 NE 6 7 3 4 1021.5 - 0.0
16/11:00pm 11.0 10.9 9.6 91 0.7 CALM 0 0 0 0 1021.6 - 0.0
16/10:30pm 10.9 9.4 9.3 90 0.8 NNE 7 7 4 4 1021.8 - 0.0
16/10:00pm 11.3 9.2 9.6 89 0.9 NE 11 13 6 7 1021.7 - 0.0
16/09:30pm 12.1 11.8 10.0 87 1.1 W 2 7 1 4 1021.7 - 0.0
16/09:00pm 14.1 14.7 11.8 86 1.2 CALM 0 0 0 0 1021.6 1021.4 0.0
16/08:30pm 15.0 13.6 12.3 84 1.5 WSW 11 13 6 7 1021.4 - 0.0
16/08:00pm 15.5 14.2 12.4 82 1.7 WSW 11 11 6 6 1021.2 - 0.0
16/07:30pm 16.4 15.1 12.6 78 2.1 WSW 11 13 6 7 1020.8 - 0.0
16/07:00pm 17.6 15.6 12.7 73 2.7 WSW 15 17 8 9 1020.5 - 0.0
16/06:30pm 18.5 15.5 12.0 66 3.6 SW 19 22 10 12 1020.3 - 0.0
16/06:00pm 20.0 15.9 10.1 53 5.3 WSW 22 28 12 15 1020.1 1019.9 0.0
16/05:30pm 21.2 16.3 9.8 48 6.2 SW 26 30 14 16 1019.9 - 0.0
16/05:00pm 22.3 17.8 8.4 41 7.4 WSW 22 28 12 15 1019.5 - 0.0
16/04:30pm 22.9 17.5 8.2 39 7.8 WSW 26 35 14 19 1019.2 - 0.0
16/04:00pm 24.1 19.2 8.5 37 8.4 WSW 24 32 13 17 1019.2 - 0.0
16/03:30pm 24.3 18.0 7.4 34 8.9 WSW 30 37 16 20 1019.3 - 0.0
16/03:00pm 24.9 17.7 7.5 33 9.2 SSW 35 43 19 23 1019.1 1019.0 0.0
16/02:30pm 26.4 21.1 4.8 25 11.0 WSW 22 30 12 16 1019.0 - 0.0
16/02:00pm 26.4 20.7 3.0 22 11.5 W 22 32 12 17 1018.9 - 0.0
16/01:30pm 26.0 19.7 3.9 24 11.0 WNW 26 32 14 17 1018.9 - 0.0
16/01:00pm 25.7 19.9 4.2 25 10.8 WNW 24 39 13 21 1019.5 - 0.0
16/12:30pm 25.3 20.0 5.0 27 10.3 WNW 22 32 12 17 1019.8 - 0.0
16/12:00pm 25.1 20.2 5.3 28 10.1 WNW 20 30 11 16 1020.0 1019.8 0.0
16/11:30am 24.0 19.4 6.7 33 9.0 NW 20 28 11 15 1020.6 - 0.0
16/11:00am 23.8 18.2 7.0 34 8.8 NW 26 30 14 16 1021.1 - 0.0
16/10:30am 22.8 18.7 7.8 38 7.9 NW 19 28 10 15 1021.4 - 0.0
16/10:00am 21.7 17.7 8.2 42 7.1 NW 19 24 10 13 1021.6 - 0.0
16/09:30am 20.1 15.4 7.8 45 6.4 NNW 22 28 12 15 1021.5 - 0.0
16/09:00am 18.6 14.4 8.3 51 5.3 NNW 20 28 11 15 1021.6 1021.4 0.0
16/08:30am 17.2 13.2 8.4 56 4.5 N 19 26 10 14 1021.1 - 0.0
16/08:00am 16.2 12.2 8.4 60 4.0 N 19 22 10 12 1020.7 - 0.0
16/07:30am 14.8 10.7 8.7 67 3.1 N 20 26 11 14 1020.2 - 0.0
16/07:00am 13.2 10.2 9.3 77 2.0 N 15 20 8 11 1020.3 - 0.0
16/06:30am 12.2 10.6 8.1 76 2.0 E 6 9 3 5 1020.2 - 0.0
16/06:00am 11.5 9.6 8.9 84 1.3 NE 9 13 5 7 1020.2 1020.0 0.0
16/05:30am 10.3 8.7 8.6 89 0.8 NE 7 11 4 6 1020.2 - 0.0
16/05:00am 10.3 8.6 8.2 87 1.0 ENE 7 9 4 5 1020.2 - 0.0
16/04:30am 8.7 6.7 7.0 89 0.8 ENE 7 9 4 5 1020.3 - 0.0
16/04:00am 7.8 5.2 6.3 90 0.7 NE 9 9 5 5 1020.4 - 0.0
16/03:30am 7.7 5.1 6.2 90 0.7 NE 9 11 5 6 1020.5 - 0.0
16/03:00am 8.0 5.4 6.3 89 0.8 NE 9 11 5 6 1020.8 1020.6 0.0
16/02:30am 8.3 5.8 6.6 89 0.8 NNE 9 9 5 5 1021.1 - 0.0
16/02:00am 8.7 7.2 6.8 88 0.9 NE 4 7 2 4 1021.3 - 0.0
16/01:30am 9.0 8.4 7.3 89 0.8 CALM 0 0 0 0 1021.5 - 0.0
16/01:00am 9.0 7.2 7.1 88 0.9 NE 6 9 3 5 1021.3 - 0.0
16/12:30am 9.7 7.5 7.8 88 0.9 ENE 9 9 5 5 1021.4 - 0.0
16/12:00am 10.4 8.7 7.6 83 1.3 NE 6 7 3 4 1021.4 1021.2 0.0
 
Date/Time
CST
Temp
°C
App
Temp
°C
Dew
Point
Rel
Hum
%
Delta-T
°C
Wind Press
QNH
hPa
Press
MSL
hPa
Rain
since 9 am
mm
Dir
 
Spd
km/h
Gust
km/h
Spd
kts
Gust
kts
15/11:30pm 12.5 10.6 9.0 79 1.8 ENE 9 11 5 6 1021.6 - 0.0
15/11:00pm 13.1 11.6 9.0 76 2.1 E 7 9 4 5 1022.0 - 0.0
15/10:30pm 13.4 11.8 8.7 73 2.4 E 7 9 4 5 1022.0 - 0.0
15/10:00pm 13.5 12.1 9.0 74 2.3 SSE 6 9 3 5 1022.1 - 0.0
15/09:30pm 14.5 13.2 9.3 71 2.7 S 6 9 3 5 1021.9 - 0.0
15/09:00pm 14.8 13.3 10.6 76 2.2 S 9 11 5 6 1021.8 1021.6 0.0
15/08:30pm 15.4 14.3 10.8 74 2.4 S 7 17 4 9 1021.7 - 0.0
15/08:00pm 16.0 14.2 10.7 71 2.8 SSW 11 13 6 7 1021.6 - 0.0
15/07:30pm 17.4 14.9 11.0 66 3.5 SSW 15 19 8 10 1021.5 - 0.0
15/07:00pm 18.2 16.2 7.0 48 5.6 SW 7 9 4 5 1021.1 - 0.0
15/06:30pm 19.3 16.9 6.8 44 6.3 SW 9 11 5 6 1020.7 - 0.0
15/06:00pm 21.2 18.7 6.7 39 7.4 S 9 11 5 6 1020.4 1020.2 0.0
15/05:30pm 22.7 19.7 6.0 34 8.5 S 11 17 6 9 1020.4 - 0.0
15/05:00pm 23.2 20.6 6.0 33 8.8 SE 9 13 5 7 1020.2 - 0.0
15/04:30pm 23.6 21.0 6.0 32 9.0 S 9 15 5 8 1020.1 - 0.0
15/04:00pm 23.5 20.9 5.9 32 9.0 SE 9 15 5 8 1020.2 - 0.0
15/03:30pm 23.7 20.8 6.5 33 8.9 SE 11 19 6 10 1020.3 - 0.0
15/03:00pm 23.5 20.3 6.7 34 8.7 SSE 13 20 7 11 1020.5 1020.3 0.0
15/02:30pm 23.0 20.0 5.9 33 8.7 SE 11 24 6 13 1020.7 - 0.0
15/02:00pm 23.3 20.0 6.6 34 8.6 ESE 13 26 7 14 1021.1 - 0.0
15/01:30pm 22.2 19.0 6.8 37 7.9 SSE 13 20 7 11 1021.5 - 0.0
15/01:00pm 22.6 19.2 7.6 38 7.8 E 15 24 8 13 1021.7 - 0.0
15/12:30pm 22.4 18.7 7.8 39 7.7 E 17 28 9 15 1022.0 - 0.0
15/12:00pm 20.6 18.4 9.5 49 5.9 ESE 11 19 6 10 1022.7 1022.5 0.0
15/11:30am 21.0 18.4 10.8 52 5.6 ESE 15 22 8 12 1023.3 - 0.0
15/11:00am 19.8 16.8 10.8 56 4.9 E 17 24 9 13 1023.9 - 0.0
15/10:30am 19.0 17.3 12.3 65 3.7 E 13 22 7 12 1024.1 - 0.0
15/10:00am 17.0 15.4 11.7 71 2.9 SE 11 13 6 7 1024.3 - 0.0
15/09:30am 15.9 14.3 11.7 76 2.3 SE 11 15 6 8 1024.2 - 0.0
15/09:00am 14.5 13.3 11.5 82 1.6 ESE 9 13 5 7 1024.0 1023.8 0.0
15/08:30am 13.0 12.0 10.9 87 1.1 SE 7 11 4 6 1024.1 - 0.0
15/08:00am 10.8 9.5 10.0 95 0.4 NE 7 11 4 6 1023.8 - 0.0
15/07:30am 7.6 5.2 6.9 95 0.3 NE 9 9 5 5 1023.6 - 0.0
15/07:00am 6.3 4.9 5.4 94 0.4 NE 2 6 1 3 1023.6 - 0.0
15/06:30am 6.3 4.5 5.4 94 0.4 NE 4 7 2 4 1023.6 - 0.0
15/06:00am 7.0 5.0 6.1 94 0.4 NW 6 7 3 4 1023.6 1023.4 0.0
15/05:30am 8.0 6.2 7.1 94 0.4 NW 6 7 3 4 1023.6 - 0.0
15/05:00am 7.5 5.5 6.4 93 0.5 WNW 6 7 3 4 1023.5 - 0.0
15/04:30am 7.8 5.9 6.7 93 0.5 SW 6 9 3 5 1023.3 - 0.0
15/04:00am 7.5 6.2 6.1 91 0.6 NNW 2 11 1 6 1023.1 - 0.0
15/03:30am 9.0 7.4 7.8 92 0.6 NNW 6 7 3 4 1023.1 - 0.0
15/03:00am 9.8 7.3 8.2 90 0.8 SSE 11 11 6 6 1023.2 1023.0 0.0
15/02:30am 9.9 7.9 8.5 91 0.7 S 9 11 5 6 1023.4 - 0.0
15/02:00am 8.6 6.7 6.9 89 0.8 S 6 9 3 5 1023.6 - 0.0
15/01:30am 9.5 7.7 7.1 85 1.1 SE 6 7 3 4 1023.5 - 0.0
15/01:00am 11.1 9.3 8.1 82 1.5 SSE 7 9 4 5 1023.6 - 0.0
15/12:30am 12.3 10.8 9.1 81 1.6 SE 7 11 4 6 1023.6 - 0.0
15/12:00am 12.7 10.8 9.2 79 1.8 E 9 15 5 8 1023.6 1023.4 0.0
 
Date/Time
CST
Temp
°C
App
Temp
°C
Dew
Point
Rel
Hum
%
Delta-T
°C
Wind Press
QNH
hPa
Press
MSL
hPa
Rain
since 9 am
mm
Dir
 
Spd
km/h
Gust
km/h
Spd
kts
Gust
kts
14/11:30pm 13.6 11.8 9.5 76 2.1 E 9 13 5 7 1023.8 - 0.0
14/11:00pm 14.2 12.0 9.4 73 2.5 E 11 17 6 9 1023.9 - 0.0
14/10:30pm 14.7 12.1 9.5 71 2.7 ESE 13 19 7 10 1023.8 - 0.0
14/10:00pm 14.8 12.2 9.4 70 2.8 ESE 13 19 7 10 1023.8 - 0.0
14/09:30pm 15.2 13.4 9.3 68 3.0 ESE 9 15 5 8 1023.8 - 0.0
14/09:00pm 15.6 13.7 9.1 65 3.3 ESE 9 13 5 7 1023.8 1023.6 0.0
14/08:30pm 16.3 13.6 8.8 61 3.9 ESE 13 20 7 11 1023.2 - 0.0
14/08:00pm 17.3 13.4 8.7 57 4.4 SE 19 28 10 15 1023.1 - 0.0
14/07:30pm 17.7 14.3 9.1 57 4.5 SE 17 22 9 12 1022.9 - 0.0
14/07:00pm 18.3 15.4 9.6 57 4.6 SE 15 19 8 10 1022.4 - 0.0
14/06:30pm 19.2 15.8 9.1 52 5.3 SE 17 24 9 13 1021.8 - 0.0
14/06:00pm 20.3 16.4 8.6 47 6.1 SE 19 26 10 14 1021.5 1021.3 0.0
14/05:30pm 21.0 16.9 8.6 45 6.5 SE 20 28 11 15 1021.0 - 0.0
14/05:00pm 21.6 16.7 8.5 43 6.9 SE 24 33 13 18 1020.7 - 0.0
14/04:30pm 21.4 16.0 8.0 42 7.0 SSE 26 37 14 20 1020.8 - 0.0

Other Formats:

Comma delimited format used in spreadsheet applications
http://www.bom.gov.au/fwo/IDS60801/IDS60801.95654.axf

JavaScript Object Notation format (JSON) in row-major order
http://www.bom.gov.au/fwo/IDS60801/IDS60801.95654.json